sensor_id;sensor_type;location;lat;lon;timestamp;P1;durP1;ratioP1;P2;durP2;ratioP2
28960;SDS011;16068;42.896;20.868;2023-12-07T00:00:49;6.90;;;4.22;;
28960;SDS011;16068;42.896;20.868;2023-12-07T00:03:35;7.40;;;4.20;;
28960;SDS011;16068;42.896;20.868;2023-12-07T00:06:22;6.85;;;4.43;;
28960;SDS011;16068;42.896;20.868;2023-12-07T00:09:08;6.00;;;3.85;;
28960;SDS011;16068;42.896;20.868;2023-12-07T00:11:54;5.88;;;3.72;;
28960;SDS011;16068;42.896;20.868;2023-12-07T00:14:40;6.85;;;4.05;;
28960;SDS011;16068;42.896;20.868;2023-12-07T00:17:27;7.97;;;5.22;;
28960;SDS011;16068;42.896;20.868;2023-12-07T00:20:13;8.82;;;5.90;;
28960;SDS011;16068;42.896;20.868;2023-12-07T00:22:59;8.60;;;4.80;;
28960;SDS011;16068;42.896;20.868;2023-12-07T00:25:45;7.63;;;4.88;;
28960;SDS011;16068;42.896;20.868;2023-12-07T00:28:33;7.82;;;5.20;;
28960;SDS011;16068;42.896;20.868;2023-12-07T00:31:19;7.63;;;5.20;;
28960;SDS011;16068;42.896;20.868;2023-12-07T00:34:06;7.68;;;5.00;;
28960;SDS011;16068;42.896;20.868;2023-12-07T00:36:51;6.25;;;4.40;;
28960;SDS011;16068;42.896;20.868;2023-12-07T00:39:37;6.47;;;4.00;;
28960;SDS011;16068;42.896;20.868;2023-12-07T00:42:23;5.03;;;3.53;;
28960;SDS011;16068;42.896;20.868;2023-12-07T00:45:11;5.38;;;3.50;;
28960;SDS011;16068;42.896;20.868;2023-12-07T00:48:00;6.07;;;3.50;;
28960;SDS011;16068;42.896;20.868;2023-12-07T00:50:46;6.03;;;3.50;;
28960;SDS011;16068;42.896;20.868;2023-12-07T00:53:34;4.97;;;3.30;;
28960;SDS011;16068;42.896;20.868;2023-12-07T00:56:19;3.40;;;2.63;;
28960;SDS011;16068;42.896;20.868;2023-12-07T00:59:06;4.38;;;2.80;;
28960;SDS011;16068;42.896;20.868;2023-12-07T01:01:52;3.83;;;2.47;;
28960;SDS011;16068;42.896;20.868;2023-12-07T01:04:39;3.58;;;2.60;;
28960;SDS011;16068;42.896;20.868;2023-12-07T01:07:25;3.60;;;2.53;;
28960;SDS011;16068;42.896;20.868;2023-12-07T01:10:11;3.67;;;2.70;;
28960;SDS011;16068;42.896;20.868;2023-12-07T01:12:57;3.70;;;2.85;;
28960;SDS011;16068;42.896;20.868;2023-12-07T01:15:43;3.15;;;2.25;;
28960;SDS011;16068;42.896;20.868;2023-12-07T01:18:29;4.45;;;2.65;;
28960;SDS011;16068;42.896;20.868;2023-12-07T01:21:15;3.13;;;2.38;;
28960;SDS011;16068;42.896;20.868;2023-12-07T01:24:01;3.25;;;2.35;;
28960;SDS011;16068;42.896;20.868;2023-12-07T01:27:00;3.78;;;2.40;;
28960;SDS011;16068;42.896;20.868;2023-12-07T01:29:46;4.00;;;3.03;;
28960;SDS011;16068;42.896;20.868;2023-12-07T01:32:32;3.78;;;2.63;;
28960;SDS011;16068;42.896;20.868;2023-12-07T01:35:18;4.20;;;2.72;;
28960;SDS011;16068;42.896;20.868;2023-12-07T01:38:04;4.72;;;2.78;;
28960;SDS011;16068;42.896;20.868;2023-12-07T01:40:50;3.30;;;2.30;;
28960;SDS011;16068;42.896;20.868;2023-12-07T01:43:36;3.25;;;2.40;;
28960;SDS011;16068;42.896;20.868;2023-12-07T01:46:22;3.80;;;2.58;;
28960;SDS011;16068;42.896;20.868;2023-12-07T01:49:09;3.20;;;2.42;;
28960;SDS011;16068;42.896;20.868;2023-12-07T01:51:55;2.97;;;2.20;;
28960;SDS011;16068;42.896;20.868;2023-12-07T01:54:42;3.13;;;2.30;;
28960;SDS011;16068;42.896;20.868;2023-12-07T01:57:28;3.53;;;2.63;;
28960;SDS011;16068;42.896;20.868;2023-12-07T02:00:15;3.45;;;2.72;;
28960;SDS011;16068;42.896;20.868;2023-12-07T02:03:05;3.90;;;2.72;;
28960;SDS011;16068;42.896;20.868;2023-12-07T02:05:51;3.72;;;2.60;;
28960;SDS011;16068;42.896;20.868;2023-12-07T02:08:37;3.17;;;2.25;;
28960;SDS011;16068;42.896;20.868;2023-12-07T02:11:27;3.42;;;2.40;;
28960;SDS011;16068;42.896;20.868;2023-12-07T02:14:13;5.53;;;3.25;;
28960;SDS011;16068;42.896;20.868;2023-12-07T02:17:08;3.65;;;2.72;;
28960;SDS011;16068;42.896;20.868;2023-12-07T02:20:28;3.22;;;2.35;;
28960;SDS011;16068;42.896;20.868;2023-12-07T02:23:15;3.85;;;2.50;;
28960;SDS011;16068;42.896;20.868;2023-12-07T02:26:22;5.57;;;3.20;;
28960;SDS011;16068;42.896;20.868;2023-12-07T02:29:24;3.30;;;2.10;;
28960;SDS011;16068;42.896;20.868;2023-12-07T02:32:10;3.85;;;2.75;;
28960;SDS011;16068;42.896;20.868;2023-12-07T02:34:56;3.10;;;2.45;;
28960;SDS011;16068;42.896;20.868;2023-12-07T02:37:44;3.72;;;2.67;;
28960;SDS011;16068;42.896;20.868;2023-12-07T02:40:32;3.03;;;2.00;;
28960;SDS011;16068;42.896;20.868;2023-12-07T02:43:19;2.72;;;1.90;;
28960;SDS011;16068;42.896;20.868;2023-12-07T02:46:05;2.38;;;2.15;;
28960;SDS011;16068;42.896;20.868;2023-12-07T02:48:51;3.28;;;2.10;;
28960;SDS011;16068;42.896;20.868;2023-12-07T02:51:37;3.28;;;2.30;;
28960;SDS011;16068;42.896;20.868;2023-12-07T02:54:23;4.20;;;2.55;;
28960;SDS011;16068;42.896;20.868;2023-12-07T02:57:09;4.18;;;2.97;;
28960;SDS011;16068;42.896;20.868;2023-12-07T02:59:56;6.10;;;3.70;;
28960;SDS011;16068;42.896;20.868;2023-12-07T03:02:42;5.57;;;3.70;;
28960;SDS011;16068;42.896;20.868;2023-12-07T03:05:28;4.80;;;3.38;;
28960;SDS011;16068;42.896;20.868;2023-12-07T03:08:14;3.70;;;2.50;;
28960;SDS011;16068;42.896;20.868;2023-12-07T03:11:00;3.78;;;2.45;;
28960;SDS011;16068;42.896;20.868;2023-12-07T03:13:46;3.00;;;2.20;;
28960;SDS011;16068;42.896;20.868;2023-12-07T03:16:32;3.67;;;2.40;;
28960;SDS011;16068;42.896;20.868;2023-12-07T03:19:17;3.35;;;2.15;;
28960;SDS011;16068;42.896;20.868;2023-12-07T03:22:03;2.70;;;2.03;;
28960;SDS011;16068;42.896;20.868;2023-12-07T03:24:50;3.22;;;2.30;;
28960;SDS011;16068;42.896;20.868;2023-12-07T03:27:37;2.92;;;2.10;;
28960;SDS011;16068;42.896;20.868;2023-12-07T03:30:23;2.80;;;2.10;;
28960;SDS011;16068;42.896;20.868;2023-12-07T03:33:09;3.47;;;2.10;;
28960;SDS011;16068;42.896;20.868;2023-12-07T03:35:55;2.92;;;1.92;;
28960;SDS011;16068;42.896;20.868;2023-12-07T03:38:42;2.67;;;1.80;;
28960;SDS011;16068;42.896;20.868;2023-12-07T03:41:28;2.55;;;1.80;;
28960;SDS011;16068;42.896;20.868;2023-12-07T03:44:15;2.55;;;1.98;;
28960;SDS011;16068;42.896;20.868;2023-12-07T03:47:01;2.38;;;1.98;;
28960;SDS011;16068;42.896;20.868;2023-12-07T03:49:47;3.67;;;2.42;;
28960;SDS011;16068;42.896;20.868;2023-12-07T03:52:33;4.07;;;2.80;;
28960;SDS011;16068;42.896;20.868;2023-12-07T03:55:19;3.13;;;2.30;;
28960;SDS011;16068;42.896;20.868;2023-12-07T03:58:05;2.97;;;2.00;;
28960;SDS011;16068;42.896;20.868;2023-12-07T04:00:51;2.13;;;1.50;;
28960;SDS011;16068;42.896;20.868;2023-12-07T04:03:37;1.98;;;1.40;;
28960;SDS011;16068;42.896;20.868;2023-12-07T04:06:24;2.15;;;1.65;;
28960;SDS011;16068;42.896;20.868;2023-12-07T04:09:11;2.28;;;1.52;;
28960;SDS011;16068;42.896;20.868;2023-12-07T04:11:57;1.48;;;1.10;;
28960;SDS011;16068;42.896;20.868;2023-12-07T04:14:43;1.30;;;1.17;;
28960;SDS011;16068;42.896;20.868;2023-12-07T04:17:29;1.50;;;1.00;;
28960;SDS011;16068;42.896;20.868;2023-12-07T04:20:15;1.50;;;1.25;;
28960;SDS011;16068;42.896;20.868;2023-12-07T04:23:01;1.13;;;0.82;;
28960;SDS011;16068;42.896;20.868;2023-12-07T04:25:47;1.10;;;0.77;;
28960;SDS011;16068;42.896;20.868;2023-12-07T04:28:33;0.88;;;0.70;;
28960;SDS011;16068;42.896;20.868;2023-12-07T04:31:19;0.70;;;0.60;;
28960;SDS011;16068;42.896;20.868;2023-12-07T04:34:07;1.13;;;0.75;;
28960;SDS011;16068;42.896;20.868;2023-12-07T04:36:53;0.90;;;0.70;;
28960;SDS011;16068;42.896;20.868;2023-12-07T04:39:39;0.95;;;0.80;;
28960;SDS011;16068;42.896;20.868;2023-12-07T04:42:25;0.82;;;0.80;;
28960;SDS011;16068;42.896;20.868;2023-12-07T04:45:11;1.17;;;0.80;;
28960;SDS011;16068;42.896;20.868;2023-12-07T04:47:57;1.10;;;0.77;;
28960;SDS011;16068;42.896;20.868;2023-12-07T04:50:46;0.90;;;0.77;;
28960;SDS011;16068;42.896;20.868;2023-12-07T04:53:32;0.60;;;0.60;;
28960;SDS011;16068;42.896;20.868;2023-12-07T04:56:18;0.70;;;0.70;;
28960;SDS011;16068;42.896;20.868;2023-12-07T04:59:05;0.70;;;0.60;;
28960;SDS011;16068;42.896;20.868;2023-12-07T05:01:51;0.70;;;0.70;;
28960;SDS011;16068;42.896;20.868;2023-12-07T05:04:36;0.45;;;0.45;;
28960;SDS011;16068;42.896;20.868;2023-12-07T05:07:23;0.70;;;0.57;;
28960;SDS011;16068;42.896;20.868;2023-12-07T05:10:09;0.70;;;0.70;;
28960;SDS011;16068;42.896;20.868;2023-12-07T05:12:55;1.40;;;1.00;;
28960;SDS011;16068;42.896;20.868;2023-12-07T05:15:42;0.73;;;0.70;;
28960;SDS011;16068;42.896;20.868;2023-12-07T05:18:28;0.88;;;0.70;;
28960;SDS011;16068;42.896;20.868;2023-12-07T05:21:15;0.60;;;0.60;;
28960;SDS011;16068;42.896;20.868;2023-12-07T05:24:01;0.60;;;0.60;;
28960;SDS011;16068;42.896;20.868;2023-12-07T05:26:47;0.60;;;0.60;;
28960;SDS011;16068;42.896;20.868;2023-12-07T05:29:34;0.55;;;0.50;;
28960;SDS011;16068;42.896;20.868;2023-12-07T05:32:21;0.98;;;0.60;;
28960;SDS011;16068;42.896;20.868;2023-12-07T05:35:08;0.88;;;0.70;;
28960;SDS011;16068;42.896;20.868;2023-12-07T05:37:54;1.00;;;0.70;;
28960;SDS011;16068;42.896;20.868;2023-12-07T05:40:40;0.77;;;0.60;;
28960;SDS011;16068;42.896;20.868;2023-12-07T05:43:27;1.05;;;0.80;;
28960;SDS011;16068;42.896;20.868;2023-12-07T05:46:13;0.70;;;0.60;;
28960;SDS011;16068;42.896;20.868;2023-12-07T05:48:59;0.60;;;0.60;;
28960;SDS011;16068;42.896;20.868;2023-12-07T05:51:45;0.73;;;0.63;;
28960;SDS011;16068;42.896;20.868;2023-12-07T05:54:31;0.98;;;0.80;;
28960;SDS011;16068;42.896;20.868;2023-12-07T05:57:17;1.30;;;0.90;;
28960;SDS011;16068;42.896;20.868;2023-12-07T06:00:03;1.00;;;0.80;;
28960;SDS011;16068;42.896;20.868;2023-12-07T06:05:43;1.20;;;1.00;;
28960;SDS011;16068;42.896;20.868;2023-12-07T06:08:31;2.05;;;0.93;;
28960;SDS011;16068;42.896;20.868;2023-12-07T06:11:17;1.15;;;1.05;;
28960;SDS011;16068;42.896;20.868;2023-12-07T06:14:03;1.23;;;1.13;;
28960;SDS011;16068;42.896;20.868;2023-12-07T06:16:52;1.45;;;1.08;;
28960;SDS011;16068;42.896;20.868;2023-12-07T06:19:37;1.10;;;1.00;;
28960;SDS011;16068;42.896;20.868;2023-12-07T06:22:23;1.10;;;0.90;;
28960;SDS011;16068;42.896;20.868;2023-12-07T06:25:09;1.40;;;1.17;;
28960;SDS011;16068;42.896;20.868;2023-12-07T06:27:57;1.38;;;1.20;;
28960;SDS011;16068;42.896;20.868;2023-12-07T06:30:43;1.58;;;1.10;;
28960;SDS011;16068;42.896;20.868;2023-12-07T06:33:30;1.38;;;1.25;;
28960;SDS011;16068;42.896;20.868;2023-12-07T06:36:23;1.83;;;1.30;;
28960;SDS011;16068;42.896;20.868;2023-12-07T06:39:10;1.58;;;1.27;;
28960;SDS011;16068;42.896;20.868;2023-12-07T06:41:56;1.40;;;1.20;;
28960;SDS011;16068;42.896;20.868;2023-12-07T06:44:43;1.45;;;1.08;;
28960;SDS011;16068;42.896;20.868;2023-12-07T06:47:29;2.17;;;1.30;;
28960;SDS011;16068;42.896;20.868;2023-12-07T06:50:16;1.60;;;1.20;;
28960;SDS011;16068;42.896;20.868;2023-12-07T06:53:02;1.20;;;1.00;;
28960;SDS011;16068;42.896;20.868;2023-12-07T06:55:49;1.25;;;1.15;;
28960;SDS011;16068;42.896;20.868;2023-12-07T06:58:38;1.92;;;1.30;;
28960;SDS011;16068;42.896;20.868;2023-12-07T07:01:27;1.38;;;1.20;;
28960;SDS011;16068;42.896;20.868;2023-12-07T07:04:16;1.08;;;0.90;;
28960;SDS011;16068;42.896;20.868;2023-12-07T07:07:04;0.98;;;0.88;;
28960;SDS011;16068;42.896;20.868;2023-12-07T07:09:52;1.40;;;1.10;;
28960;SDS011;16068;42.896;20.868;2023-12-07T07:12:39;0.88;;;0.77;;
28960;SDS011;16068;42.896;20.868;2023-12-07T07:15:26;1.33;;;0.88;;
28960;SDS011;16068;42.896;20.868;2023-12-07T07:18:14;1.02;;;0.93;;
28960;SDS011;16068;42.896;20.868;2023-12-07T07:21:02;1.92;;;1.25;;
28960;SDS011;16068;42.896;20.868;2023-12-07T07:23:51;1.50;;;1.08;;
28960;SDS011;16068;42.896;20.868;2023-12-07T07:26:38;0.88;;;0.85;;
28960;SDS011;16068;42.896;20.868;2023-12-07T07:29:25;1.15;;;0.80;;
28960;SDS011;16068;42.896;20.868;2023-12-07T07:32:15;0.73;;;0.70;;
28960;SDS011;16068;42.896;20.868;2023-12-07T07:35:02;1.15;;;0.88;;
28960;SDS011;16068;42.896;20.868;2023-12-07T07:37:50;1.20;;;1.00;;
28960;SDS011;16068;42.896;20.868;2023-12-07T07:40:38;1.45;;;1.00;;
28960;SDS011;16068;42.896;20.868;2023-12-07T07:43:28;1.20;;;1.00;;
28960;SDS011;16068;42.896;20.868;2023-12-07T07:46:18;1.25;;;0.90;;
28960;SDS011;16068;42.896;20.868;2023-12-07T07:49:07;1.20;;;1.10;;
28960;SDS011;16068;42.896;20.868;2023-12-07T07:51:54;1.45;;;0.90;;
28960;SDS011;16068;42.896;20.868;2023-12-07T07:54:42;1.00;;;0.90;;
28960;SDS011;16068;42.896;20.868;2023-12-07T07:57:29;1.08;;;0.85;;
28960;SDS011;16068;42.896;20.868;2023-12-07T08:00:17;1.20;;;0.95;;
28960;SDS011;16068;42.896;20.868;2023-12-07T08:03:05;0.75;;;0.75;;
28960;SDS011;16068;42.896;20.868;2023-12-07T08:05:54;1.05;;;0.80;;
28960;SDS011;16068;42.896;20.868;2023-12-07T08:08:42;1.23;;;0.95;;
28960;SDS011;16068;42.896;20.868;2023-12-07T08:11:33;0.95;;;0.80;;
28960;SDS011;16068;42.896;20.868;2023-12-07T08:14:20;1.00;;;0.90;;
28960;SDS011;16068;42.896;20.868;2023-12-07T08:17:07;1.02;;;0.80;;
28960;SDS011;16068;42.896;20.868;2023-12-07T08:19:54;1.05;;;0.90;;
28960;SDS011;16068;42.896;20.868;2023-12-07T08:22:41;0.95;;;0.90;;
28960;SDS011;16068;42.896;20.868;2023-12-07T08:25:29;1.23;;;1.00;;
28960;SDS011;16068;42.896;20.868;2023-12-07T08:28:17;1.10;;;0.90;;
28960;SDS011;16068;42.896;20.868;2023-12-07T08:31:04;1.13;;;0.88;;
28960;SDS011;16068;42.896;20.868;2023-12-07T08:33:50;1.40;;;0.90;;
28960;SDS011;16068;42.896;20.868;2023-12-07T08:36:36;1.33;;;1.00;;
28960;SDS011;16068;42.896;20.868;2023-12-07T08:39:22;1.10;;;1.00;;
28960;SDS011;16068;42.896;20.868;2023-12-07T08:42:08;0.93;;;0.80;;
28960;SDS011;16068;42.896;20.868;2023-12-07T08:44:54;1.42;;;0.82;;
28960;SDS011;16068;42.896;20.868;2023-12-07T08:47:42;1.23;;;1.10;;
28960;SDS011;16068;42.896;20.868;2023-12-07T08:50:28;1.60;;;0.90;;
28960;SDS011;16068;42.896;20.868;2023-12-07T08:53:15;1.55;;;0.90;;
28960;SDS011;16068;42.896;20.868;2023-12-07T08:56:01;1.58;;;1.00;;
28960;SDS011;16068;42.896;20.868;2023-12-07T08:58:47;0.90;;;0.80;;
28960;SDS011;16068;42.896;20.868;2023-12-07T09:01:33;2.03;;;1.33;;
28960;SDS011;16068;42.896;20.868;2023-12-07T09:04:20;3.42;;;2.15;;
28960;SDS011;16068;42.896;20.868;2023-12-07T09:07:06;2.33;;;1.50;;
28960;SDS011;16068;42.896;20.868;2023-12-07T09:09:54;2.10;;;1.30;;
28960;SDS011;16068;42.896;20.868;2023-12-07T09:12:40;1.10;;;0.88;;
28960;SDS011;16068;42.896;20.868;2023-12-07T09:15:26;1.42;;;0.90;;
28960;SDS011;16068;42.896;20.868;2023-12-07T09:18:12;1.20;;;0.77;;
28960;SDS011;16068;42.896;20.868;2023-12-07T09:20:58;0.73;;;0.73;;
28960;SDS011;16068;42.896;20.868;2023-12-07T09:23:46;1.08;;;0.77;;
28960;SDS011;16068;42.896;20.868;2023-12-07T09:26:32;0.90;;;0.68;;
28960;SDS011;16068;42.896;20.868;2023-12-07T09:29:18;0.93;;;0.70;;
28960;SDS011;16068;42.896;20.868;2023-12-07T09:32:05;0.85;;;0.60;;
28960;SDS011;16068;42.896;20.868;2023-12-07T09:34:51;1.00;;;0.80;;
28960;SDS011;16068;42.896;20.868;2023-12-07T09:37:38;1.38;;;0.93;;
28960;SDS011;16068;42.896;20.868;2023-12-07T09:40:24;1.05;;;0.90;;
28960;SDS011;16068;42.896;20.868;2023-12-07T09:43:12;1.92;;;1.08;;
28960;SDS011;16068;42.896;20.868;2023-12-07T09:45:58;1.08;;;0.98;;
28960;SDS011;16068;42.896;20.868;2023-12-07T09:48:44;1.35;;;1.00;;
28960;SDS011;16068;42.896;20.868;2023-12-07T09:51:32;1.15;;;0.93;;
28960;SDS011;16068;42.896;20.868;2023-12-07T09:54:19;1.15;;;0.90;;
28960;SDS011;16068;42.896;20.868;2023-12-07T09:57:07;1.63;;;1.15;;
28960;SDS011;16068;42.896;20.868;2023-12-07T09:59:55;0.93;;;0.82;;
28960;SDS011;16068;42.896;20.868;2023-12-07T10:02:41;1.65;;;1.30;;
28960;SDS011;16068;42.896;20.868;2023-12-07T10:05:31;1.23;;;1.10;;
28960;SDS011;16068;42.896;20.868;2023-12-07T10:08:24;2.88;;;1.98;;
28960;SDS011;16068;42.896;20.868;2023-12-07T10:11:11;2.10;;;1.42;;
28960;SDS011;16068;42.896;20.868;2023-12-07T10:13:58;1.58;;;1.10;;
28960;SDS011;16068;42.896;20.868;2023-12-07T10:16:54;2.55;;;1.13;;
28960;SDS011;16068;42.896;20.868;2023-12-07T10:19:44;1.30;;;1.10;;
28960;SDS011;16068;42.896;20.868;2023-12-07T10:22:29;2.15;;;1.20;;
28960;SDS011;16068;42.896;20.868;2023-12-07T10:25:17;1.08;;;0.80;;
28960;SDS011;16068;42.896;20.868;2023-12-07T10:28:07;0.60;;;0.60;;
28960;SDS011;16068;42.896;20.868;2023-12-07T10:30:54;0.95;;;0.82;;
28960;SDS011;16068;42.896;20.868;2023-12-07T10:33:40;0.70;;;0.70;;
28960;SDS011;16068;42.896;20.868;2023-12-07T10:36:28;0.93;;;0.85;;
28960;SDS011;16068;42.896;20.868;2023-12-07T10:39:14;0.98;;;0.80;;
28960;SDS011;16068;42.896;20.868;2023-12-07T10:42:10;0.90;;;0.80;;
28960;SDS011;16068;42.896;20.868;2023-12-07T10:45:00;0.70;;;0.70;;
28960;SDS011;16068;42.896;20.868;2023-12-07T10:47:51;1.10;;;0.90;;
28960;SDS011;16068;42.896;20.868;2023-12-07T10:50:40;1.23;;;0.90;;
28960;SDS011;16068;42.896;20.868;2023-12-07T10:53:32;1.00;;;0.90;;
28960;SDS011;16068;42.896;20.868;2023-12-07T10:56:29;0.98;;;0.75;;
28960;SDS011;16068;42.896;20.868;2023-12-07T10:59:26;1.05;;;0.77;;
28960;SDS011;16068;42.896;20.868;2023-12-07T11:02:20;1.20;;;1.00;;
28960;SDS011;16068;42.896;20.868;2023-12-07T11:05:08;1.27;;;1.05;;
28960;SDS011;16068;42.896;20.868;2023-12-07T11:08:18;3.58;;;1.25;;
28960;SDS011;16068;42.896;20.868;2023-12-07T11:11:10;1.27;;;1.17;;
28960;SDS011;16068;42.896;20.868;2023-12-07T11:14:02;2.03;;;1.23;;
28960;SDS011;16068;42.896;20.868;2023-12-07T11:16:52;1.80;;;1.40;;
28960;SDS011;16068;42.896;20.868;2023-12-07T11:22:31;1.33;;;1.23;;
28960;SDS011;16068;42.896;20.868;2023-12-07T11:25:16;1.67;;;1.10;;
28960;SDS011;16068;42.896;20.868;2023-12-07T11:28:06;1.45;;;1.13;;
28960;SDS011;16068;42.896;20.868;2023-12-07T11:30:53;1.40;;;1.23;;
28960;SDS011;16068;42.896;20.868;2023-12-07T11:33:40;1.20;;;1.10;;
28960;SDS011;16068;42.896;20.868;2023-12-07T11:36:27;0.93;;;0.90;;
28960;SDS011;16068;42.896;20.868;2023-12-07T11:42:18;1.48;;;1.10;;
28960;SDS011;16068;42.896;20.868;2023-12-07T11:45:08;1.85;;;1.25;;
28960;SDS011;16068;42.896;20.868;2023-12-07T11:48:10;1.27;;;1.10;;
28960;SDS011;16068;42.896;20.868;2023-12-07T11:51:03;1.45;;;1.15;;
28960;SDS011;16068;42.896;20.868;2023-12-07T11:53:54;2.05;;;1.35;;
28960;SDS011;16068;42.896;20.868;2023-12-07T11:56:40;1.85;;;1.48;;
28960;SDS011;16068;42.896;20.868;2023-12-07T11:59:27;2.20;;;1.20;;
28960;SDS011;16068;42.896;20.868;2023-12-07T12:02:18;1.75;;;1.30;;
28960;SDS011;16068;42.896;20.868;2023-12-07T12:05:05;1.50;;;1.20;;
28960;SDS011;16068;42.896;20.868;2023-12-07T12:07:51;1.48;;;1.20;;
28960;SDS011;16068;42.896;20.868;2023-12-07T12:10:38;1.58;;;1.27;;
28960;SDS011;16068;42.896;20.868;2023-12-07T12:13:28;1.60;;;1.20;;
28960;SDS011;16068;42.896;20.868;2023-12-07T12:16:15;1.40;;;1.20;;
28960;SDS011;16068;42.896;20.868;2023-12-07T12:19:01;2.92;;;1.92;;
28960;SDS011;16068;42.896;20.868;2023-12-07T12:21:47;2.40;;;1.63;;
28960;SDS011;16068;42.896;20.868;2023-12-07T12:24:37;2.30;;;1.40;;
28960;SDS011;16068;42.896;20.868;2023-12-07T12:27:23;1.55;;;1.40;;
28960;SDS011;16068;42.896;20.868;2023-12-07T12:30:09;1.65;;;1.27;;
28960;SDS011;16068;42.896;20.868;2023-12-07T12:32:56;2.00;;;1.50;;
28960;SDS011;16068;42.896;20.868;2023-12-07T12:35:43;2.25;;;1.45;;
28960;SDS011;16068;42.896;20.868;2023-12-07T12:38:30;1.67;;;1.45;;
28960;SDS011;16068;42.896;20.868;2023-12-07T12:41:27;2.47;;;1.75;;
28960;SDS011;16068;42.896;20.868;2023-12-07T12:44:16;1.98;;;1.45;;
28960;SDS011;16068;42.896;20.868;2023-12-07T12:47:16;2.95;;;1.63;;
28960;SDS011;16068;42.896;20.868;2023-12-07T12:50:02;1.48;;;1.20;;
28960;SDS011;16068;42.896;20.868;2023-12-07T12:52:51;1.67;;;1.40;;
28960;SDS011;16068;42.896;20.868;2023-12-07T12:55:38;1.45;;;1.35;;
28960;SDS011;16068;42.896;20.868;2023-12-07T12:58:25;1.42;;;1.20;;
28960;SDS011;16068;42.896;20.868;2023-12-07T13:01:11;1.35;;;1.13;;
28960;SDS011;16068;42.896;20.868;2023-12-07T13:03:58;2.17;;;1.35;;
28960;SDS011;16068;42.896;20.868;2023-12-07T13:06:44;1.05;;;0.95;;
28960;SDS011;16068;42.896;20.868;2023-12-07T13:09:30;1.83;;;1.45;;
28960;SDS011;16068;42.896;20.868;2023-12-07T13:12:16;1.85;;;1.38;;
28960;SDS011;16068;42.896;20.868;2023-12-07T13:15:04;1.58;;;1.10;;
28960;SDS011;16068;42.896;20.868;2023-12-07T13:17:51;2.33;;;1.60;;
28960;SDS011;16068;42.896;20.868;2023-12-07T13:20:36;1.20;;;1.10;;
28960;SDS011;16068;42.896;20.868;2023-12-07T13:23:38;1.35;;;1.17;;
28960;SDS011;16068;42.896;20.868;2023-12-07T13:26:24;1.52;;;1.10;;
28960;SDS011;16068;42.896;20.868;2023-12-07T13:29:11;2.15;;;1.50;;
28960;SDS011;16068;42.896;20.868;2023-12-07T13:32:10;1.58;;;1.30;;
28960;SDS011;16068;42.896;20.868;2023-12-07T13:34:58;3.17;;;1.10;;
28960;SDS011;16068;42.896;20.868;2023-12-07T13:37:44;1.58;;;1.20;;
28960;SDS011;16068;42.896;20.868;2023-12-07T13:40:31;1.50;;;1.15;;
28960;SDS011;16068;42.896;20.868;2023-12-07T13:43:21;2.67;;;1.40;;
28960;SDS011;16068;42.896;20.868;2023-12-07T13:46:11;2.45;;;1.63;;
28960;SDS011;16068;42.896;20.868;2023-12-07T13:48:58;1.75;;;1.20;;
28960;SDS011;16068;42.896;20.868;2023-12-07T13:51:45;2.08;;;1.40;;
28960;SDS011;16068;42.896;20.868;2023-12-07T13:54:32;1.85;;;1.45;;
28960;SDS011;16068;42.896;20.868;2023-12-07T13:57:37;2.88;;;1.30;;
28960;SDS011;16068;42.896;20.868;2023-12-07T14:00:23;1.55;;;1.17;;
28960;SDS011;16068;42.896;20.868;2023-12-07T14:03:09;2.78;;;1.33;;
28960;SDS011;16068;42.896;20.868;2023-12-07T14:05:55;1.92;;;1.38;;
28960;SDS011;16068;42.896;20.868;2023-12-07T14:08:41;2.75;;;1.95;;
28960;SDS011;16068;42.896;20.868;2023-12-07T14:11:28;3.35;;;1.70;;
28960;SDS011;16068;42.896;20.868;2023-12-07T14:14:14;2.97;;;1.60;;
28960;SDS011;16068;42.896;20.868;2023-12-07T14:17:00;2.67;;;1.65;;
28960;SDS011;16068;42.896;20.868;2023-12-07T14:19:57;1.83;;;1.48;;
28960;SDS011;16068;42.896;20.868;2023-12-07T14:23:03;1.85;;;1.48;;
28960;SDS011;16068;42.896;20.868;2023-12-07T14:25:51;3.17;;;1.38;;
28960;SDS011;16068;42.896;20.868;2023-12-07T14:28:37;2.20;;;1.42;;
28960;SDS011;16068;42.896;20.868;2023-12-07T14:31:23;2.45;;;1.65;;
28960;SDS011;16068;42.896;20.868;2023-12-07T14:34:10;1.63;;;1.40;;
28960;SDS011;16068;42.896;20.868;2023-12-07T14:37:03;1.75;;;1.30;;
28960;SDS011;16068;42.896;20.868;2023-12-07T14:39:52;2.28;;;1.45;;
28960;SDS011;16068;42.896;20.868;2023-12-07T14:42:38;2.33;;;1.40;;
28960;SDS011;16068;42.896;20.868;2023-12-07T14:45:24;2.20;;;1.45;;
28960;SDS011;16068;42.896;20.868;2023-12-07T14:48:10;2.20;;;1.40;;
28960;SDS011;16068;42.896;20.868;2023-12-07T14:50:57;2.83;;;1.70;;
28960;SDS011;16068;42.896;20.868;2023-12-07T14:53:44;2.85;;;1.60;;
28960;SDS011;16068;42.896;20.868;2023-12-07T14:56:30;2.30;;;1.60;;
28960;SDS011;16068;42.896;20.868;2023-12-07T14:59:24;3.60;;;2.28;;
28960;SDS011;16068;42.896;20.868;2023-12-07T15:02:10;5.40;;;2.75;;
28960;SDS011;16068;42.896;20.868;2023-12-07T15:04:57;4.03;;;2.67;;
28960;SDS011;16068;42.896;20.868;2023-12-07T15:07:43;5.93;;;3.63;;
28960;SDS011;16068;42.896;20.868;2023-12-07T15:10:31;4.82;;;3.00;;
28960;SDS011;16068;42.896;20.868;2023-12-07T15:13:17;3.97;;;2.83;;
28960;SDS011;16068;42.896;20.868;2023-12-07T15:16:04;3.70;;;2.70;;
28960;SDS011;16068;42.896;20.868;2023-12-07T15:18:50;3.50;;;2.58;;
28960;SDS011;16068;42.896;20.868;2023-12-07T15:21:37;3.80;;;2.40;;
28960;SDS011;16068;42.896;20.868;2023-12-07T15:24:23;4.05;;;2.55;;
28960;SDS011;16068;42.896;20.868;2023-12-07T15:27:21;4.35;;;2.80;;
28960;SDS011;16068;42.896;20.868;2023-12-07T15:30:10;3.20;;;2.30;;
28960;SDS011;16068;42.896;20.868;2023-12-07T15:32:56;1.98;;;1.60;;
28960;SDS011;16068;42.896;20.868;2023-12-07T15:35:42;3.20;;;2.33;;
28960;SDS011;16068;42.896;20.868;2023-12-07T15:38:29;3.33;;;2.53;;
28960;SDS011;16068;42.896;20.868;2023-12-07T15:41:15;4.32;;;2.28;;
28960;SDS011;16068;42.896;20.868;2023-12-07T15:44:01;3.70;;;2.25;;
28960;SDS011;16068;42.896;20.868;2023-12-07T15:46:47;3.50;;;2.33;;
28960;SDS011;16068;42.896;20.868;2023-12-07T15:49:33;3.60;;;2.17;;
28960;SDS011;16068;42.896;20.868;2023-12-07T15:52:20;3.03;;;2.00;;
28960;SDS011;16068;42.896;20.868;2023-12-07T15:55:07;2.85;;;1.92;;
28960;SDS011;16068;42.896;20.868;2023-12-07T15:57:52;2.38;;;1.83;;
28960;SDS011;16068;42.896;20.868;2023-12-07T16:00:40;4.32;;;2.10;;
28960;SDS011;16068;42.896;20.868;2023-12-07T16:03:26;2.97;;;1.85;;
28960;SDS011;16068;42.896;20.868;2023-12-07T16:06:14;2.45;;;1.80;;
28960;SDS011;16068;42.896;20.868;2023-12-07T16:09:00;3.30;;;2.10;;
28960;SDS011;16068;42.896;20.868;2023-12-07T16:11:46;2.58;;;2.00;;
28960;SDS011;16068;42.896;20.868;2023-12-07T16:14:32;2.60;;;1.65;;
28960;SDS011;16068;42.896;20.868;2023-12-07T16:17:19;3.13;;;1.77;;
28960;SDS011;16068;42.896;20.868;2023-12-07T16:20:06;2.10;;;1.52;;
28960;SDS011;16068;42.896;20.868;2023-12-07T16:22:56;1.83;;;1.55;;
28960;SDS011;16068;42.896;20.868;2023-12-07T16:25:42;3.00;;;1.80;;
28960;SDS011;16068;42.896;20.868;2023-12-07T16:28:28;2.78;;;1.70;;
28960;SDS011;16068;42.896;20.868;2023-12-07T16:31:14;2.92;;;1.88;;
28960;SDS011;16068;42.896;20.868;2023-12-07T16:34:01;2.95;;;1.92;;
28960;SDS011;16068;42.896;20.868;2023-12-07T16:36:50;2.15;;;1.70;;
28960;SDS011;16068;42.896;20.868;2023-12-07T16:39:40;2.33;;;1.77;;
28960;SDS011;16068;42.896;20.868;2023-12-07T16:42:27;1.65;;;1.55;;